| time (UTC) | temp F | wind direction | speed knots | gust knots | rain 1hr in | rain 24hr in | rain mn in | humidity % | barometer mb |
| 20260505184047 | 57 | 126 | 0.0 | 3.5 | 0.00 | 0.00 | 0.00 | 53 | 1003.3 |
| 20260505183557 | 57 | 104 | 0.9 | 4.3 | 0.00 | 0.00 | 0.00 | 53 | 1003.4 |
| 20260505183017 | 57 | 130 | 1.7 | 4.3 | 0.00 | 0.00 | 0.00 | 53 | 1003.3 |
| 20260505182523 | 57 | 123 | 0.0 | 4.3 | 0.00 | 0.00 | 0.00 | 53 | 1003.2 |
| 20260505182037 | 57 | 77 | 0.9 | 2.6 | 0.00 | 0.00 | 0.00 | 55 | 1003.2 |
| 20260505181548 | 57 | 131 | 0.0 | 4.3 | 0.00 | 0.00 | 0.00 | 58 | 1003.5 |
| 20260505181006 | 57 | 136 | 1.7 | 5.2 | 0.00 | 0.00 | 0.00 | 57 | 1003.5 |
| 20260505180515 | 58 | 139 | 0.0 | 3.5 | 0.00 | 0.00 | 0.00 | 61 | 1003.5 |
| 20260505180036 | 57 | 130 | 0.0 | 5.2 | 0.00 | 0.00 | 0.00 | 58 | 1003.3 |
| 20260505175539 | 58 | 115 | 1.7 | 5.2 | 0.00 | 0.00 | 0.00 | 54 | 1003.4 |
| 20260505175053 | 58 | 170 | 0.9 | 4.3 | 0.00 | 0.00 | 0.00 | 49 | 1003.3 |
| 20260505174510 | 58 | 129 | 0.9 | 4.3 | 0.00 | 0.00 | 0.00 | 45 | 1003.2 |
| 20260505174020 | 58 | 124 | 0.0 | 6.1 | 0.00 | 0.00 | 0.00 | 46 | 1003.0 |
| 20260505173534 | 58 | 122 | 0.9 | 6.1 | 0.00 | 0.00 | 0.00 | 45 | 1003.1 |
| 20260505173045 | 59 | 130 | 0.9 | 5.2 | 0.00 | 0.00 | 0.00 | 45 | 1003.0 |
| 20260505172557 | 59 | 122 | 0.9 | 3.5 | 0.00 | 0.00 | 0.00 | 45 | 1002.9 |
| 20260505172016 | 59 | 128 | 0.0 | 4.3 | 0.00 | 0.00 | 0.00 | 45 | 1002.9 |
| 20260505171530 | 58 | 143 | 0.9 | 4.3 | 0.00 | 0.00 | 0.00 | 48 | 1003.0 |
| 20260505171035 | 57 | 150 | 0.0 | 2.6 | 0.00 | 0.00 | 0.00 | 47 | 1003.1 |
| 20260505170554 | 57 | 153 | 0.0 | 4.3 | 0.00 | 0.00 | 0.00 | 47 | 1003.2 |
| 20260505170007 | 56 | 140 | 1.7 | 4.3 | 0.00 | 0.00 | 0.00 | 47 | 1003.2 |
| 20260505165517 | 57 | 143 | 0.9 | 6.1 | 0.00 | 0.00 | 0.00 | 48 | 1003.4 |
| 20260505165029 | 57 | 141 | 1.7 | 6.1 | 0.00 | 0.00 | 0.00 | 46 | 1003.4 |
| 20260505164543 | 57 | 135 | 0.0 | 6.1 | 0.00 | 0.00 | 0.00 | 47 | 1003.1 |
| 20260505164054 | 57 | 164 | 1.7 | 6.1 | 0.00 | 0.00 | 0.00 | 47 | 1003.0 |
| 20260505163508 | 56 | 150 | 0.0 | 7.8 | 0.00 | 0.00 | 0.00 | 48 | 1003.1 |
| 20260505163023 | 56 | 153 | 1.7 | 7.8 | 0.00 | 0.00 | 0.00 | 47 | 1003.2 |
| 20260505162533 | 56 | 143 | 2.6 | 5.2 | 0.00 | 0.00 | 0.00 | 48 | 1003.1 |
| 20260505162043 | 55 | 150 | 1.7 | 6.1 | 0.00 | 0.00 | 0.00 | 49 | 1003.0 |
| 20260505161557 | 54 | 151 | 1.7 | 6.1 | 0.00 | 0.00 | 0.00 | 51 | 1003.1 |
| 20260505161011 | 54 | 160 | 1.7 | 7.0 | 0.00 | 0.00 | 0.00 | 53 | 1003.2 |
| 20260505160523 | 53 | 151 | 2.6 | 7.0 | 0.00 | 0.00 | 0.00 | 55 | 1003.2 |
| 20260505153105 | 53 | 158 | 5.2 | 9.6 | 0.00 | 0.00 | 0.00 | 56 | 1003.6 |
| 20260505152504 | 53 | 158 | 4.3 | 11.3 | 0.00 | 0.00 | 0.00 | 57 | 1003.7 |
| 20260505152024 | 52 | 167 | 3.5 | 11.3 | 0.00 | 0.00 | 0.00 | 58 | 1003.8 |
| 20260505151527 | 52 | 132 | 6.1 | 10.4 | 0.00 | 0.00 | 0.00 | 59 | 1003.8 |
| 20260505151042 | 52 | 168 | 4.3 | 10.4 | 0.00 | 0.00 | 0.00 | 62 | 1003.8 |
| 20260505150553 | 52 | 128 | 4.3 | 8.7 | 0.00 | 0.00 | 0.00 | 64 | 1003.8 |
| 20260505140531 | 53 | 165 | 0.9 | 6.1 | 0.00 | 0.00 | 0.00 | 58 | 1004.0 |
| 20260505125037 | 56 | 134 | 0.0 | 2.6 | 0.00 | 0.00 | 0.00 | 40 | 1003.0 |
| 20260505124559 | 56 | 124 | 0.0 | 3.5 | 0.00 | 0.00 | 0.00 | 41 | 1002.9 |
| 20260505124003 | 56 | 124 | 0.9 | 3.5 | 0.00 | 0.00 | 0.00 | 41 | 1002.9 |
| 20260505123517 | 56 | 131 | 0.0 | 2.6 | 0.00 | 0.00 | 0.00 | 40 | 1003.0 |
| 20260505123044 | 56 | 131 | 0.0 | 3.5 | 0.00 | 0.00 | 0.00 | 40 | 1003.2 |
| 20260505122541 | 56 | 125 | 0.0 | 3.5 | 0.00 | 0.00 | 0.00 | 40 | 1003.1 |
| 20260505122055 | 56 | 121 | 0.0 | 3.5 | 0.00 | 0.00 | 0.00 | 39 | 1003.1 |
| 20260505121513 | 56 | 133 | 0.9 | 3.5 | 0.00 | 0.00 | 0.00 | 39 | 1003.1 |
| 20260505121023 | 56 | 122 | 0.9 | 4.3 | 0.00 | 0.00 | 0.00 | 39 | 1003.2 |
| 20260505120537 | 56 | 132 | 0.9 | 4.3 | 0.00 | 0.00 | 0.00 | 39 | 1003.3 |
| 20260505120052 | 56 | 123 | 0.9 | 4.3 | 0.00 | 0.00 | 0.00 | 39 | 1003.3 |
| 20260505115505 | 56 | 128 | 0.9 | 4.3 | 0.00 | 0.00 | 0.00 | 39 | 1003.1 |
| 20260505115017 | 56 | 129 | 0.9 | 3.5 | 0.00 | 0.00 | 0.00 | 39 | 1003.0 |
| 20260505114536 | 56 | 126 | 0.9 | 4.3 | 0.00 | 0.00 | 0.00 | 39 | 1003.2 |
| 20260505114042 | 56 | 131 | 0.9 | 4.3 | 0.00 | 0.00 | 0.00 | 39 | 1003.1 |
| 20260505113555 | 56 | 131 | 0.9 | 3.5 | 0.00 | 0.00 | 0.00 | 39 | 1003.0 |
| 20260505113009 | 56 | 142 | 0.9 | 5.2 | 0.00 | 0.00 | 0.00 | 39 | 1003.0 |
| 20260505112521 | 56 | 119 | 0.9 | 5.2 | 0.00 | 0.00 | 0.00 | 39 | 1003.0 |
| 20260505112035 | 56 | 91 | 1.7 | 5.2 | 0.00 | 0.00 | 0.00 | 38 | 1003.0 |
| 20260505111545 | 56 | 115 | 1.7 | 4.3 | 0.00 | 0.00 | 0.00 | 38 | 1003.0 |
| 20260505111059 | 56 | 126 | 0.9 | 5.2 | 0.00 | 0.00 | 0.00 | 38 | 1002.8 |
| 20260505111001 | 56 | 127 | 0.9 | 5.2 | 0.00 | 0.00 | 0.00 | 38 | 1002.8 |
| 20260505110511 | 56 | 131 | 0.9 | 5.2 | 0.00 | 0.00 | 0.00 | 37 | 1002.9 |
| 20260505102004 | 56 | 124 | 1.7 | 3.5 | 0.00 | 0.00 | 0.00 | 36 | 1003.4 |
| 20260505101517 | 56 | 115 | 0.0 | 2.6 | 0.00 | 0.00 | 0.00 | 36 | 1003.3 |
| 20260505101030 | 56 | 111 | 0.0 | 1.7 | 0.00 | 0.00 | 0.00 | 36 | 1003.3 |
| 20260505100541 | 56 | 118 | 0.0 | 1.7 | 0.00 | 0.00 | 0.00 | 36 | 1003.2 |
| 20260505100101 | 57 | 118 | 0.0 | 1.7 | 0.00 | 0.00 | 0.00 | 35 | 1003.1 |
| 20260505095511 | 57 | 118 | 0.0 | 3.5 | 0.00 | 0.00 | 0.00 | 35 | 1003.1 |
| 20260505095020 | 57 | 110 | 0.0 | 2.6 | 0.00 | 0.00 | 0.00 | 35 | 1003.1 |
| 20260505094535 | 57 | 117 | 0.9 | 2.6 | 0.00 | 0.00 | 0.00 | 35 | 1003.0 |
| 20260505094044 | 57 | 117 | 0.9 | 2.6 | 0.00 | 0.00 | 0.00 | 35 | 1003.2 |
| 20260505093602 | 57 | 125 | 0.9 | 2.6 | 0.00 | 0.00 | 0.00 | 36 | 1003.0 |
| 20260505093504 | 57 | 118 | 0.9 | 2.6 | 0.00 | 0.00 | 0.00 | 36 | 1003.0 |
| 20260505093011 | 57 | 126 | 0.0 | 0.9 | 0.00 | 0.00 | 0.00 | 36 | 1003.0 |
| 20260505092525 | 57 | 127 | 0.0 | 0.9 | 0.00 | 0.00 | 0.00 | 36 | 1003.0 |
| 20260505092035 | 57 | 126 | 0.0 | 0.9 | 0.00 | 0.00 | 0.00 | 36 | 1003.2 |
| 20260505091550 | 57 | 126 | 0.0 | 0.9 | 0.00 | 0.00 | 0.00 | 36 | 1003.2 |
| 20260505091058 | 57 | 126 | 0.0 | 0.9 | 0.00 | 0.00 | 0.00 | 36 | 1003.3 |
| 20260505090515 | 57 | 126 | 0.0 | 0.9 | 0.00 | 0.00 | 0.00 | 36 | 1003.2 |
| 20260505090039 | 57 | 126 | 0.0 | 0.9 | 0.00 | 0.00 | 0.00 | 35 | 1003.2 |
| 20260505085536 | 58 | 126 | 0.0 | 0.9 | 0.00 | 0.00 | 0.00 | 34 | 1003.4 |
| 20260505085049 | 58 | 126 | 0.0 | 0.9 | 0.00 | 0.00 | 0.00 | 34 | 1003.4 |
| 20260505084503 | 58 | 126 | 0.0 | 1.7 | 0.00 | 0.00 | 0.00 | 33 | 1003.5 |
| 20260505084013 | 59 | 126 | 0.0 | 2.6 | 0.00 | 0.00 | 0.00 | 33 | 1003.5 |
| 20260505083526 | 59 | 126 | 0.0 | 3.5 | 0.00 | 0.00 | 0.00 | 33 | 1003.6 |
| 20260505083036 | 59 | 126 | 0.0 | 3.5 | 0.00 | 0.00 | 0.00 | 33 | 1003.6 |
| 20260505082550 | 59 | 129 | 0.9 | 4.3 | 0.00 | 0.00 | 0.00 | 33 | 1003.6 |
| 20260505082100 | 59 | 134 | 1.7 | 4.3 | 0.00 | 0.00 | 0.00 | 32 | 1003.6 |
| 20260505082003 | 59 | 131 | 1.7 | 4.3 | 0.00 | 0.00 | 0.00 | 32 | 1003.7 |
| 20260505081524 | 59 | 121 | 1.7 | 6.1 | 0.00 | 0.00 | 0.00 | 32 | 1003.6 |
| 20260505081027 | 60 | 144 | 1.7 | 6.1 | 0.00 | 0.00 | 0.00 | 32 | 1003.7 |
| 20260505080541 | 60 | 127 | 0.9 | 3.5 | 0.00 | 0.00 | 0.00 | 31 | 1003.8 |
| 20260505080055 | 60 | 130 | 0.9 | 4.3 | 0.00 | 0.00 | 0.00 | 31 | 1004.0 |
| 20260505075509 | 60 | 114 | 1.7 | 4.3 | 0.00 | 0.00 | 0.00 | 31 | 1004.0 |
| 20260505075021 | 60 | 123 | 0.9 | 5.2 | 0.00 | 0.00 | 0.00 | 31 | 1004.2 |
| 20260505074532 | 60 | 129 | 2.6 | 5.2 | 0.00 | 0.00 | 0.00 | 31 | 1004.3 |
| 20260505074053 | 60 | 127 | 2.6 | 5.2 | 0.00 | 0.00 | 0.00 | 31 | 1004.1 |
| 20260505073557 | 60 | 131 | 0.0 | 3.5 | 0.00 | 0.00 | 0.00 | 31 | 1004.2 |
| 20260505073016 | 60 | 125 | 0.0 | 3.5 | 0.00 | 0.00 | 0.00 | 31 | 1004.0 |
| 20260505072523 | 60 | 125 | 0.9 | 4.3 | 0.00 | 0.00 | 0.00 | 31 | 1003.9 |
| 20260505072036 | 60 | 115 | 0.9 | 4.3 | 0.00 | 0.00 | 0.00 | 31 | 1003.9 |
| 20260505071547 | 60 | 121 | 0.0 | 3.5 | 0.00 | 0.00 | 0.00 | 31 | 1003.8 |
| 20260505071102 | 60 | 121 | 0.9 | 6.1 | 0.00 | 0.00 | 0.00 | 31 | 1003.9 |
| 20260505071002 | 60 | 121 | 0.9 | 6.1 | 0.00 | 0.00 | 0.00 | 31 | 1003.9 |
| 20260505070514 | 61 | 113 | 1.7 | 6.1 | 0.00 | 0.00 | 0.00 | 31 | 1003.9 |
| 20260505070026 | 61 | 114 | 0.9 | 6.1 | 0.00 | 0.00 | 0.00 | 30 | 1003.8 |
| 20260505065536 | 61 | 109 | 1.7 | 5.2 | 0.00 | 0.00 | 0.00 | 30 | 1003.7 |
| 20260505065050 | 61 | 102 | 1.7 | 6.1 | 0.00 | 0.00 | 0.00 | 29 | 1003.6 |
| 20260505064600 | 62 | 122 | 2.6 | 7.0 | 0.00 | 0.00 | 0.00 | 29 | 1003.4 |
| 20260505064502 | 62 | 110 | 2.6 | 7.0 | 0.00 | 0.00 | 0.00 | 29 | 1003.5 |
| 20260505064016 | 62 | 100 | 2.6 | 8.7 | 0.00 | 0.00 | 0.00 | 28 | 1003.5 |
| 20260505063528 | 62 | 100 | 3.5 | 8.7 | 0.00 | 0.00 | 0.00 | 28 | 1003.5 |
| 20260505063042 | 62 | 107 | 1.7 | 7.8 | 0.00 | 0.00 | 0.00 | 28 | 1003.4 |
| 20260505062551 | 62 | 123 | 2.6 | 7.8 | 0.00 | 0.00 | 0.00 | 28 | 1003.4 |
| 20260505062006 | 62 | 102 | 1.7 | 7.8 | 0.00 | 0.00 | 0.00 | 27 | 1003.4 |
| 20260505061518 | 62 | 104 | 3.5 | 7.8 | 0.00 | 0.00 | 0.00 | 27 | 1003.5 |
| 20260505061030 | 63 | 105 | 2.6 | 7.0 | 0.00 | 0.00 | 0.00 | 27 | 1003.4 |
| 20260505060540 | 63 | 92 | 1.7 | 7.0 | 0.00 | 0.00 | 0.00 | 26 | 1003.5 |
| 20260505060036 | 63 | 111 | 2.6 | 7.0 | 0.00 | 0.00 | 0.00 | 26 | 1003.5 |
| 20260505055542 | 63 | 96 | 2.6 | 8.7 | 0.00 | 0.00 | 0.00 | 26 | 1003.4 |
| 20260505055055 | 63 | 86 | 3.5 | 8.7 | 0.00 | 0.00 | 0.00 | 26 | 1003.3 |
| 20260505054510 | 63 | 143 | 2.6 | 9.6 | 0.00 | 0.00 | 0.00 | 26 | 1003.4 |
| 20260505054017 | 63 | 122 | 1.7 | 6.1 | 0.00 | 0.00 | 0.00 | 26 | 1003.4 |
| 20260505053532 | 63 | 94 | 1.7 | 7.8 | 0.00 | 0.00 | 0.00 | 25 | 1003.4 |
| 20260505053042 | 63 | 112 | 2.6 | 7.8 | 0.00 | 0.00 | 0.00 | 25 | 1003.3 |
| 20260505052559 | 63 | 93 | 1.7 | 5.2 | 0.00 | 0.00 | 0.00 | 25 | 1003.3 |
| 20260505052012 | 63 | 111 | 1.7 | 4.3 | 0.00 | 0.00 | 0.00 | 25 | 1003.2 |
| 20260505051524 | 64 | 129 | 0.9 | 4.3 | 0.00 | 0.00 | 0.00 | 25 | 1003.2 |
| 20260505051039 | 64 | 122 | 0.9 | 6.1 | 0.00 | 0.00 | 0.00 | 24 | 1003.2 |
| 20260505050548 | 64 | 134 | 1.7 | 6.1 | 0.00 | 0.00 | 0.00 | 24 | 1003.0 |
| 20260505041605 | 65 | 118 | 0.0 | 1.7 | 0.00 | 0.00 | 0.00 | 25 | 1002.9 |
| 20260505041010 | 65 | 118 | 0.0 | 1.7 | 0.00 | 0.00 | 0.00 | 25 | 1002.8 |
| 20260505040520 | 65 | 116 | 0.0 | 2.6 | 0.00 | 0.00 | 0.00 | 24 | 1002.7 |
| 20260505040037 | 65 | 117 | 0.0 | 2.6 | 0.00 | 0.00 | 0.00 | 24 | 1002.7 |
| 20260505035544 | 65 | 110 | 0.9 | 3.5 | 0.00 | 0.00 | 0.00 | 24 | 1002.7 |
| 20260505035100 | 66 | 120 | 0.0 | 4.3 | 0.00 | 0.00 | 0.00 | 24 | 1002.7 |
| 20260505035002 | 66 | 120 | 0.0 | 4.3 | 0.00 | 0.00 | 0.00 | 24 | 1002.7 |
| 20260505034513 | 66 | 131 | 0.0 | 2.6 | 0.00 | 0.00 | 0.00 | 24 | 1002.7 |
| 20260505034028 | 66 | 122 | 0.0 | 3.5 | 0.00 | 0.00 | 0.00 | 24 | 1002.7 |
| 20260505033536 | 66 | 119 | 0.0 | 3.5 | 0.00 | 0.00 | 0.00 | 24 | 1002.5 |
| 20260505033051 | 66 | 128 | 0.9 | 3.5 | 0.00 | 0.00 | 0.00 | 23 | 1002.6 |
| 20260505032600 | 66 | 112 | 0.9 | 4.3 | 0.00 | 0.00 | 0.00 | 23 | 1002.4 |
| 20260505032507 | 67 | 108 | 0.9 | 4.3 | 0.00 | 0.00 | 0.00 | 23 | 1002.4 |
| 20260505032016 | 67 | 128 | 0.0 | 4.3 | 0.00 | 0.00 | 0.00 | 23 | 1002.3 |
| 20260505031540 | 67 | 127 | 1.7 | 4.3 | 0.00 | 0.00 | 0.00 | 22 | 1002.3 |
| 20260505031040 | 67 | 132 | 0.9 | 3.5 | 0.00 | 0.00 | 0.00 | 22 | 1002.3 |
| 20260505030554 | 67 | 126 | 0.9 | 3.5 | 0.00 | 0.00 | 0.00 | 22 | 1002.2 |
| 20260505030008 | 67 | 143 | 0.9 | 4.3 | 0.00 | 0.00 | 0.00 | 22 | 1002.1 |
| 20260505025520 | 68 | 125 | 0.9 | 7.0 | 0.00 | 0.00 | 0.00 | 22 | 1002.1 |
| 20260505025030 | 68 | 122 | 2.6 | 11.3 | 0.00 | 0.00 | 0.00 | 21 | 1002.1 |
| 20260505024546 | 68 | 116 | 3.5 | 11.3 | 0.00 | 0.00 | 0.00 | 21 | 1002.0 |
| 20260505024056 | 68 | 120 | 5.2 | 10.4 | 0.00 | 0.00 | 0.00 | 21 | 1001.9 |
| 20260505023512 | 69 | 125 | 3.5 | 9.6 | 0.00 | 0.00 | 0.00 | 20 | 1001.8 |
| 20260505023028 | 69 | 101 | 5.2 | 10.4 | 0.00 | 0.00 | 0.00 | 20 | 1001.8 |
| 20260505022534 | 69 | 116 | 4.3 | 10.4 | 0.00 | 0.00 | 0.00 | 20 | 1001.7 |
| 20260505022044 | 69 | 157 | 4.3 | 9.6 | 0.00 | 0.00 | 0.00 | 20 | 1001.6 |
| 20260505021558 | 69 | 122 | 2.6 | 10.4 | 0.00 | 0.00 | 0.00 | 20 | 1001.6 |
| 20260505021010 | 69 | 115 | 3.5 | 10.4 | 0.00 | 0.00 | 0.00 | 19 | 1001.6 |
| 20260505020524 | 69 | 156 | 2.6 | 8.7 | 0.00 | 0.00 | 0.00 | 19 | 1001.5 |
| 20260505020038 | 70 | 96 | 4.3 | 7.8 | 0.00 | 0.00 | 0.00 | 19 | 1001.5 |
| 20260505015550 | 70 | 110 | 2.6 | 9.6 | 0.00 | 0.00 | 0.00 | 19 | 1001.4 |
| 20260505015100 | 70 | 99 | 4.3 | 9.6 | 0.00 | 0.00 | 0.00 | 19 | 1001.3 |
| 20260505015002 | 70 | 133 | 4.3 | 8.7 | 0.00 | 0.00 | 0.00 | 19 | 1001.3 |
| 20260505014518 | 70 | 92 | 3.5 | 10.4 | 0.00 | 0.00 | 0.00 | 19 | 1001.1 |
| 20260505014027 | 70 | 127 | 3.5 | 10.4 | 0.00 | 0.00 | 0.00 | 19 | 1001.3 |
| 20260505013542 | 70 | 105 | 2.6 | 10.4 | 0.00 | 0.00 | 0.00 | 19 | 1001.1 |
| 20260505013052 | 71 | 124 | 2.6 | 11.3 | 0.00 | 0.00 | 0.00 | 19 | 1000.9 |
| 20260505012514 | 71 | 139 | 4.3 | 11.3 | 0.00 | 0.00 | 0.00 | 19 | 1000.9 |
| 20260505012025 | 71 | 99 | 1.7 | 7.8 | 0.00 | 0.00 | 0.00 | 19 | 1000.8 |
| 20260505011533 | 71 | 126 | 1.7 | 8.7 | 0.00 | 0.00 | 0.00 | 19 | 1000.7 |
| 20260505011047 | 71 | 136 | 2.6 | 8.7 | 0.00 | 0.00 | 0.00 | 19 | 1000.7 |
| 20260505010555 | 71 | 124 | 3.5 | 9.6 | 0.00 | 0.00 | 0.00 | 19 | 1000.8 |
| 20260505010012 | 72 | 116 | 4.3 | 9.6 | 0.00 | 0.00 | 0.00 | 18 | 1000.8 |
| 20260505005522 | 72 | 126 | 2.6 | 7.8 | 0.00 | 0.00 | 0.00 | 18 | 1000.8 |
| 20260505005036 | 72 | 127 | 4.3 | 10.4 | 0.00 | 0.00 | 0.00 | 18 | 1000.8 |
| 20260505004548 | 72 | 124 | 4.3 | 10.4 | 0.00 | 0.00 | 0.00 | 18 | 1000.8 |
| 20260505004004 | 72 | 115 | 1.7 | 10.4 | 0.00 | 0.00 | 0.00 | 18 | 1000.8 |
| 20260505003513 | 72 | 136 | 4.3 | 10.4 | 0.00 | 0.00 | 0.00 | 17 | 1000.8 |
| 20260505003027 | 72 | 121 | 3.5 | 10.4 | 0.00 | 0.00 | 0.00 | 17 | 1000.8 |
| 20260505002544 | 73 | 89 | 3.5 | 9.6 | 0.00 | 0.00 | 0.00 | 17 | 1000.8 |
| 20260505002054 | 73 | 116 | 4.3 | 9.6 | 0.00 | 0.00 | 0.00 | 16 | 1000.9 |
| 20260505001506 | 73 | 122 | 5.2 | 11.3 | 0.00 | 0.00 | 0.00 | 16 | 1001.0 |
| 20260505001020 | 73 | 125 | 5.2 | 11.3 | 0.00 | 0.00 | 0.00 | 16 | 1000.9 |
| 20260505000532 | 73 | 45 | 6.1 | 10.4 | 0.00 | 0.00 | 0.00 | 16 | 1000.9 |
| 20260505000101 | 73 | 115 | 3.5 | 11.3 | 0.00 | 0.00 | 0.00 | 16 | 1000.9 |
| 20260504235552 | 73 | 94 | 5.2 | 10.4 | 0.00 | 0.00 | 0.00 | 15 | 1000.8 |
| 20260504235008 | 73 | 121 | 5.2 | 10.4 | 0.00 | 0.00 | 0.00 | 15 | 1000.9 |
| 20260504234518 | 73 | 127 | 3.5 | 10.4 | 0.00 | 0.00 | 0.00 | 15 | 1000.9 |
| 20260504234032 | 73 | 148 | 3.5 | 10.4 | 0.00 | 0.00 | 0.00 | 15 | 1001.1 |
| 20260504233544 | 73 | 124 | 5.2 | 10.4 | 0.00 | 0.00 | 0.00 | 15 | 1001.1 |
| 20260504233107 | 73 | 116 | 4.3 | 11.3 | 0.00 | 0.00 | 0.00 | 14 | 1001.1 |
| 20260504232516 | 73 | 115 | 4.3 | 11.3 | 0.00 | 0.00 | 0.00 | 14 | 1001.2 |
| 20260504232027 | 73 | 126 | 5.2 | 10.4 | 0.00 | 0.00 | 0.00 | 14 | 1001.1 |
| 20260504231540 | 73 | 100 | 4.3 | 10.4 | 0.00 | 0.00 | 0.00 | 14 | 1001.2 |
| 20260504231049 | 74 | 117 | 3.5 | 10.4 | 0.00 | 0.00 | 0.00 | 13 | 1001.2 |
| 20260504230506 | 74 | 120 | 4.3 | 10.4 | 0.00 | 0.00 | 0.00 | 13 | 1001.3 |
| 20260504230019 | 74 | 122 | 4.3 | 10.4 | 0.00 | 0.00 | 0.00 | 12 | 1001.2 |
| 20260504225532 | 74 | 94 | 3.5 | 10.4 | 0.00 | 0.00 | 0.00 | 12 | 1001.2 |
| 20260504225045 | 74 | 131 | 2.6 | 10.4 | 0.00 | 0.00 | 0.00 | 12 | 1001.3 |
| 20260504224609 | 74 | 128 | 3.5 | 10.4 | 0.00 | 0.00 | 0.00 | 12 | 1001.4 |
| 20260504224009 | 74 | 120 | 4.3 | 13.0 | 0.00 | 0.00 | 0.00 | 12 | 1001.4 |
| 20260504223525 | 74 | 111 | 5.2 | 15.6 | 0.00 | 0.00 | 0.00 | 12 | 1001.4 |
| 20260504223042 | 75 | 111 | 7.8 | 15.6 | 0.00 | 0.00 | 0.00 | 12 | 1001.5 |
| 20260504222550 | 75 | 41 | 4.3 | 13.0 | 0.00 | 0.00 | 0.00 | 12 | 1001.5 |
| 20260504222059 | 75 | 112 | 5.2 | 13.0 | 0.00 | 0.00 | 0.00 | 12 | 1001.8 |
| 20260504222001 | 75 | 77 | 5.2 | 10.4 | 0.00 | 0.00 | 0.00 | 12 | 1001.8 |
| 20260504221519 | 75 | 118 | 3.5 | 11.3 | 0.00 | 0.00 | 0.00 | 12 | 1001.8 |
| 20260504221025 | 74 | 127 | 6.1 | 13.0 | 0.00 | 0.00 | 0.00 | 12 | 1001.9 |
| 20260504220542 | 75 | 75 | 5.2 | 13.9 | 0.00 | 0.00 | 0.00 | 12 | 1002.0 |
| 20260504220050 | 75 | 73 | 5.2 | 13.9 | 0.00 | 0.00 | 0.00 | 12 | 1002.1 |
| 20260504215507 | 75 | 102 | 4.3 | 12.2 | 0.00 | 0.00 | 0.00 | 12 | 1002.0 |
| 20260504215017 | 75 | 63 | 4.3 | 12.2 | 0.00 | 0.00 | 0.00 | 12 | 1002.1 |
| 20260504214529 | 75 | 64 | 5.2 | 12.2 | 0.00 | 0.00 | 0.00 | 12 | 1002.2 |
| 20260504214039 | 75 | 85 | 5.2 | 12.2 | 0.00 | 0.00 | 0.00 | 12 | 1002.3 |
| 20260504213553 | 75 | 120 | 4.3 | 17.4 | 0.00 | 0.00 | 0.00 | 12 | 1002.3 |
| 20260504213031 | 75 | 79 | 5.2 | 13.9 | 0.00 | 0.00 | 0.00 | 11 | 1002.4 |
| 20260504212520 | 76 | 70 | 6.1 | 10.4 | 0.00 | 0.00 | 0.00 | 12 | 1002.4 |
| 20260504212035 | 75 | 104 | 5.2 | 19.1 | 0.00 | 0.00 | 0.00 | 12 | 1002.4 |
| 20260504211545 | 76 | 94 | 8.7 | 19.1 | 0.00 | 0.00 | 0.00 | 12 | 1002.6 |
| 20260504211101 | 76 | 115 | 2.6 | 12.2 | 0.00 | 0.00 | 0.00 | 12 | 1002.5 |
| 20260504211001 | 76 | 106 | 4.3 | 12.2 | 0.00 | 0.00 | 0.00 | 12 | 1002.7 |
| 20260504210512 | 76 | 101 | 6.1 | 14.8 | 0.00 | 0.00 | 0.00 | 12 | 1002.7 |
| 20260504210027 | 76 | 67 | 6.1 | 14.8 | 0.00 | 0.00 | 0.00 | 12 | 1002.9 |
| 20260504205536 | 75 | 90 | 7.0 | 13.9 | 0.00 | 0.00 | 0.00 | 12 | 1003.0 |
| 20260504205049 | 76 | 54 | 4.3 | 13.9 | 0.00 | 0.00 | 0.00 | 13 | 1003.1 |
| 20260504204504 | 76 | 88 | 3.5 | 11.3 | 0.00 | 0.00 | 0.00 | 14 | 1003.2 |
| 20260504204017 | 75 | 98 | 4.3 | 11.3 | 0.00 | 0.00 | 0.00 | 14 | 1003.3 |
| 20260504203529 | 75 | 101 | 3.5 | 13.9 | 0.00 | 0.00 | 0.00 | 14 | 1003.4 |
| 20260504203052 | 75 | 129 | 2.6 | 13.9 | 0.00 | 0.00 | 0.00 | 14 | 1003.6 |
| 20260504202554 | 76 | 101 | 5.2 | 9.6 | 0.00 | 0.00 | 0.00 | 14 | 1003.8 |
| 20260504202009 | 76 | 75 | 2.6 | 13.0 | 0.00 | 0.00 | 0.00 | 15 | 1003.9 |
| 20260504201525 | 75 | 107 | 6.1 | 13.0 | 0.00 | 0.00 | 0.00 | 15 | 1004.1 |
| 20260504201035 | 75 | 105 | 3.5 | 10.4 | 0.00 | 0.00 | 0.00 | 16 | 1004.0 |
| 20260504200547 | 75 | 108 | 4.3 | 10.4 | 0.00 | 0.00 | 0.00 | 16 | 1004.3 |
| 20260504200100 | 74 | 92 | 2.6 | 10.4 | 0.00 | 0.00 | 0.00 | 17 | 1004.3 |
| 20260504200001 | 74 | 150 | 3.5 | 10.4 | 0.00 | 0.00 | 0.00 | 17 | 1004.3 |
| 20260504195511 | 74 | 113 | 5.2 | 10.4 | 0.00 | 0.00 | 0.00 | 17 | 1004.4 |
| 20260504195025 | 74 | 103 | 3.5 | 7.8 | 0.00 | 0.00 | 0.00 | 17 | 1004.6 |
| 20260504194544 | 73 | 120 | 1.7 | 8.7 | 0.00 | 0.00 | 0.00 | 17 | 1004.6 |
| 20260504194050 | 72 | 119 | 3.5 | 8.7 | 0.00 | 0.00 | 0.00 | 18 | 1004.6 |
| 20260504193600 | 72 | 127 | 1.7 | 12.2 | 0.00 | 0.00 | 0.00 | 17 | 1004.7 |
| 20260504193506 | 72 | 129 | 1.7 | 12.2 | 0.00 | 0.00 | 0.00 | 18 | 1004.6 |
| 20260504193016 | 72 | 85 | 3.5 | 12.2 | 0.00 | 0.00 | 0.00 | 18 | 1004.8 |
| 20260504192531 | 73 | 150 | 3.5 | 9.6 | 0.00 | 0.00 | 0.00 | 17 | 1005.0 |
| 20260504192039 | 73 | 74 | 3.5 | 8.7 | 0.00 | 0.00 | 0.00 | 18 | 1005.0 |
| 20260504191554 | 73 | 86 | 3.5 | 9.6 | 0.00 | 0.00 | 0.00 | 18 | 1005.1 |
| 20260504191008 | 73 | 120 | 2.6 | 12.2 | 0.00 | 0.00 | 0.00 | 18 | 1005.1 |
| 20260504190520 | 72 | 129 | 5.2 | 12.2 | 0.00 | 0.00 | 0.00 | 18 | 1005.3 |
| 20260504190029 | 72 | 118 | 3.5 | 11.3 | 0.00 | 0.00 | 0.00 | 19 | 1005.3 |
| 20260504185544 | 72 | 89 | 1.7 | 11.3 | 0.00 | 0.00 | 0.00 | 19 | 1005.4 |
| 20260504185053 | 72 | 77 | 1.7 | 8.7 | 0.00 | 0.00 | 0.00 | 20 | 1005.6 |
| 20260504184513 | 71 | 120 | 3.5 | 9.6 | 0.00 | 0.00 | 0.00 | 20 | 1005.8 |